KFFT/FFT METAR and TAF weather

Enter ICAO airport designator
Station Type Date Time Source
KFFT METAR 2019/12/08 10:53 UTC NOAA

KFFT 081053Z AUTO 00000KT 8SM BKN046 M02/M03 A3019 RMK AO2 SLP228 I1000 T10171028


Station Type Date Time Source
KFFT Decoded METAR 2019/12/08 10:53 UTC NOAA

FRANKFORT CAPITAL CITY AIRPORT , KY, United States (KFFT) 38-11N 84-54W 236M
Dec 08, 2019 - 05:53 AM EST / 2019.12.08 1053 UTC
Wind: Calm:0
Visibility: 8 mile(s):0
Sky conditions: mostly cloudy
Temperature: 28.9 F (-1.7 C)
Dew Point: 27.0 F (-2.8 C)
Relative Humidity: 92%
Pressure (altimeter): 30.19 in. Hg (1022 hPa)
ob: KFFT 081053Z AUTO 00000KT 8SM BKN046 M02/M03 A3019 RMK AO2 SLP228 I1000 T10171028
cycle: 11

Station Type Date Time Source
KFFT TAF UTC NOAA

Error!

Example: see airport list